Time;durP1;ratioP1;P1;durP2;ratioP2;P2;SDS_P1;SDS_P2;PMS_P1;PMS_P2;Temp;Humidity;BMP_temperature;BMP_pressure;BME280_temperature;BME280_humidity;BME280_pressure;Samples;Min_cycle;Max_cycle;Signal;HPM_P1;HPM_P2
2020/12/15 00:00:51;;;;;;;65.05;39.53;;;;;;;2.68;90.96;99584.38;1767854;80;21163;-61
2020/12/15 00:03:18;;;;;;;65.22;41.23;;;;;;;2.69;90.93;99586.55;1777658;80;21028;-61
2020/12/15 00:05:45;;;;;;;62.65;38.20;;;;;;;2.71;90.95;99579.61;1769539;80;22576;-61
2020/12/15 00:08:12;;;;;;;65.30;40.20;;;;;;;2.72;90.97;99583.03;1796354;78;21668;-61
2020/12/15 00:10:40;;;;;;;70.32;42.70;;;;;;;2.72;90.91;99577.88;1799441;78;21176;-61
2020/12/15 00:13:06;;;;;;;65.20;38.88;;;;;;;2.71;90.94;99578.31;1785591;78;21063;-61
2020/12/15 00:15:36;;;;;;;72.87;41.25;;;;;;;2.73;90.93;99575.73;1804864;78;21186;-61
2020/12/15 00:18:04;;;;;;;68.45;39.20;;;;;;;2.71;90.90;99575.74;1784084;80;21268;-61
2020/12/15 00:20:31;;;;;;;71.22;41.42;;;;;;;2.72;90.86;99581.33;1778814;79;21135;-61
2020/12/15 00:22:59;;;;;;;66.55;39.18;;;;;;;2.73;90.84;99570.12;1798973;78;21597;-61
2020/12/15 00:25:26;;;;;;;63.30;39.70;;;;;;;2.73;90.86;99574.00;1784901;78;21115;-62
2020/12/15 00:27:53;;;;;;;65.55;41.23;;;;;;;2.75;90.88;99570.96;1753347;80;21203;-61
2020/12/15 00:30:23;;;;;;;64.55;38.50;;;;;;;2.76;90.81;99567.49;1771575;79;21673;-60
2020/12/15 00:32:50;;;;;;;65.40;40.20;;;;;;;2.77;90.83;99570.92;1784784;80;21222;-61
2020/12/15 00:35:17;;;;;;;66.22;41.80;;;;;;;2.77;90.79;99566.60;1781501;79;21554;-61
2020/12/15 00:37:44;;;;;;;71.62;41.70;;;;;;;2.78;90.80;99573.48;1791077;79;22333;-61
2020/12/15 00:40:12;;;;;;;69.22;40.50;;;;;;;2.78;90.74;99576.06;1780770;79;21104;-61
2020/12/15 00:42:39;;;;;;;70.17;40.88;;;;;;;2.79;90.78;99572.59;1773537;80;22620;-61
2020/12/15 00:45:06;;;;;;;69.50;41.18;;;;;;;2.80;90.71;99584.63;1786663;80;21171;-61
2020/12/15 00:47:33;;;;;;;66.35;41.65;;;;;;;2.80;90.70;99582.05;1779147;79;21215;-61
2020/12/15 00:50:02;;;;;;;70.28;42.00;;;;;;;2.80;90.65;99592.36;1776210;78;21180;-61
2020/12/15 00:52:30;;;;;;;69.32;42.93;;;;;;;2.80;90.67;99591.08;1785115;80;21234;-61
2020/12/15 00:54:57;;;;;;;69.72;42.60;;;;;;;2.81;90.63;99594.05;1782820;80;21210;-61
2020/12/15 00:57:24;;;;;;;69.20;42.20;;;;;;;2.79;90.54;99588.06;1775906;79;21014;-61
2020/12/15 00:59:53;;;;;;;68.85;41.73;;;;;;;2.77;90.57;99589.81;1775954;80;21564;-63
2020/12/15 01:02:21;;;;;;;74.42;45.10;;;;;;;2.77;90.62;99602.70;1773832;80;21205;-61
2020/12/15 01:04:48;;;;;;;62.20;40.17;;;;;;;2.79;90.65;99619.00;1771855;80;21172;-61
2020/12/15 01:07:15;;;;;;;75.28;44.63;;;;;;;2.81;90.64;99614.68;1774176;79;22568;-61
2020/12/15 01:09:42;;;;;;;66.67;40.85;;;;;;;2.81;90.60;99608.23;1764724;80;21037;-62
2020/12/15 01:12:13;;;;;;;69.00;43.25;;;;;;;2.82;90.55;99606.50;1753511;81;21156;-60
2020/12/15 01:14:40;;;;;;;69.67;42.23;;;;;;;2.72;90.60;99586.48;1753830;79;21033;-60
2020/12/15 01:17:13;;;;;;;69.30;41.70;;;;;;;2.85;90.58;99612.89;1760979;79;21140;-61
2020/12/15 01:19:42;;;;;;;68.07;41.15;;;;;;;2.85;90.63;99615.02;1757406;79;22198;-61
2020/12/15 01:22:11;;;;;;;67.30;42.05;;;;;;;2.89;90.67;99611.53;1764784;81;21076;-61
2020/12/15 01:24:38;;;;;;;;;;;;;;;2.91;90.58;99605.03;1768568;80;20982;-61
2020/12/15 01:27:05;;;;;;;60.43;38.78;;;;;;;2.88;90.48;99602.07;1759756;79;20270;-61
2020/12/15 01:29:32;;;;;;;62.62;40.58;;;;;;;2.86;90.54;99602.56;1758166;80;21126;-61
2020/12/15 01:32:03;;;;;;;61.80;38.63;;;;;;;2.81;90.40;99588.89;1752153;79;20997;-61
2020/12/15 01:34:30;;;;;;;67.32;42.70;;;;;;;2.79;90.44;99594.95;1752472;80;21087;-61
2020/12/15 01:36:59;;;;;;;67.75;41.15;;;;;;;2.75;90.45;99596.74;1759107;80;21009;-61
2020/12/15 01:39:27;;;;;;;68.25;38.28;;;;;;;2.71;90.49;99588.63;1760203;80;21691;-61
2020/12/15 01:41:54;;;;;;;59.63;35.55;;;;;;;2.72;90.53;99585.20;1754964;80;21549;-61
2020/12/15 01:44:20;;;;;;;62.15;40.17;;;;;;;2.74;90.56;99586.00;1764085;80;21638;-61
2020/12/15 01:46:50;;;;;;;65.50;39.88;;;;;;;2.71;90.49;99579.61;1763433;81;21171;-61
2020/12/15 01:49:19;;;;;;;67.10;40.78;;;;;;;2.68;90.46;99570.64;1763151;79;21639;-61
2020/12/15 01:51:46;;;;;;;67.40;40.45;;;;;;;2.67;90.45;99572.38;1762915;80;21147;-61
2020/12/15 01:54:13;;;;;;;;;;;;;;;2.64;90.50;99567.28;1759040;80;21076;-61
2020/12/15 01:56:41;;;;;;;65.70;39.18;;;;;;;2.64;90.47;99562.56;1762681;80;26776;-61
2020/12/15 01:59:08;;;;;;;68.92;39.00;;;;;;;2.62;90.52;99565.59;1733771;81;21060;-61
2020/12/15 02:01:46;;;;;;;61.50;39.03;;;;;;;2.60;90.50;99563.48;1763840;81;21660;-60
2020/12/15 02:04:14;;;;;;;60.45;37.30;;;;;;;2.57;90.51;99555.80;1763176;80;21167;-61
2020/12/15 02:06:48;;;;;;;61.77;37.45;;;;;;;2.54;90.47;99554.56;1760272;80;21641;-62
2020/12/15 02:09:39;;;;;;;63.80;40.03;;;;;;;2.50;90.43;99550.36;1777993;80;21202;-61
2020/12/15 02:12:06;;;;;;;67.65;38.70;;;;;;;2.45;90.42;99547.41;1748887;81;21143;-61
2020/12/15 02:14:33;;;;;;;60.45;36.15;;;;;;;2.39;90.38;99548.80;1738951;81;21002;-61
2020/12/15 02:17:03;;;;;;;63.38;38.38;;;;;;;2.35;90.43;99556.19;1728356;81;21652;-62
2020/12/15 02:19:29;;;;;;;61.20;37.88;;;;;;;2.32;90.41;99558.78;1734517;81;21246;-61
2020/12/15 02:22:00;;;;;;;58.73;35.78;;;;;;;2.27;90.37;99550.31;1738939;81;21646;-61
2020/12/15 02:24:28;;;;;;;62.27;37.88;;;;;;;2.22;90.41;99546.95;1742186;81;21595;-61
2020/12/15 02:26:56;;;;;;;62.30;36.55;;;;;;;2.18;90.46;99545.28;1741662;81;21144;-61
2020/12/15 02:29:23;;;;;;;58.52;36.77;;;;;;;2.16;90.53;99547.89;1742539;81;21259;-61
2020/12/15 02:31:51;;;;;;;56.63;35.33;;;;;;;2.15;90.53;99546.17;1725512;82;21190;-61
2020/12/15 02:34:18;;;;;;;57.62;35.13;;;;;;;2.14;90.52;99546.22;1738266;81;21200;-61
2020/12/15 02:36:45;;;;;;;59.45;36.88;;;;;;;2.12;90.53;99541.52;1710807;83;21119;-61
2020/12/15 02:39:16;;;;;;;61.33;37.08;;;;;;;2.10;90.46;99536.82;1711454;83;21020;-60
2020/12/15 02:41:43;;;;;;;63.52;37.85;;;;;;;2.06;90.42;99536.47;1711140;83;21584;-60
2020/12/15 02:44:10;;;;;;;60.83;34.92;;;;;;;2.01;90.42;99538.66;1710783;82;21544;-61
2020/12/15 02:46:37;;;;;;;55.50;34.10;;;;;;;1.96;90.41;99535.33;1717587;82;21757;-61
2020/12/15 02:49:04;;;;;;;57.23;35.38;;;;;;;1.91;90.40;99533.26;1711064;83;21905;-61
2020/12/15 02:51:31;;;;;;;59.15;36.95;;;;;;;1.86;90.42;99529.90;1711407;83;21044;-61
2020/12/15 02:53:59;;;;;;;62.50;36.10;;;;;;;1.83;90.47;99528.66;1713232;82;21091;-61
2020/12/15 02:56:27;;;;;;;58.48;35.35;;;;;;;1.83;90.55;99537.67;1711210;83;22063;-60
2020/12/15 02:58:55;;;;;;;57.98;36.00;;;;;;;1.82;90.52;99535.98;1711318;82;21679;-61
2020/12/15 03:01:23;;;;;;;51.35;33.58;;;;;;;1.82;90.56;99534.69;1712861;82;21269;-61
2020/12/15 03:03:50;;;;;;;57.53;35.80;;;;;;;1.80;90.54;99533.86;1710348;83;21542;-60
2020/12/15 03:06:17;;;;;;;61.83;36.38;;;;;;;1.80;90.61;99537.72;1710666;83;21028;-61
2020/12/15 03:08:44;;;;;;;60.40;35.45;;;;;;;1.82;90.64;99532.12;1714589;82;21084;-61
2020/12/15 03:11:11;;;;;;;57.10;36.38;;;;;;;1.84;90.68;99527.77;1725031;82;21756;-61
2020/12/15 03:13:38;;;;;;;56.70;35.08;;;;;;;1.87;90.69;99534.61;1736589;82;21163;-61
2020/12/15 03:16:05;;;;;;;;;;;;;;;1.89;90.69;99530.29;1739693;81;21138;-61
2020/12/15 03:18:32;;;;;;;60.45;36.60;;;;;;;1.89;90.63;99531.14;1763071;80;21083;-61
2020/12/15 03:21:04;;;;;;;59.00;35.63;;;;;;;1.90;90.63;99528.97;1765082;80;21176;-60
2020/12/15 03:23:29;;;;;;;56.08;35.58;;;;;;;1.91;90.59;99534.55;1764710;80;21219;-61
2020/12/15 03:25:56;;;;;;;58.98;35.33;;;;;;;1.90;90.54;99534.11;1765741;80;21014;-61
2020/12/15 03:28:25;;;;;;;59.53;34.38;;;;;;;1.90;90.48;99539.27;1763185;79;21081;-61
2020/12/15 03:30:52;;;;;;;54.35;35.38;;;;;;;1.89;90.52;99540.15;1765419;80;21203;-61
2020/12/15 03:33:20;;;;;;;60.03;36.98;;;;;;;1.90;90.52;99548.72;1766840;79;21026;-61
2020/12/15 03:35:47;;;;;;;53.98;32.95;;;;;;;1.90;90.49;99544.41;1760033;79;21647;-61
2020/12/15 03:38:14;;;;;;;58.15;33.60;;;;;;;1.91;90.49;99542.27;1764841;80;21034;-61
2020/12/15 03:40:42;;;;;;;58.13;36.10;;;;;;;1.91;90.49;99539.70;1768855;80;21111;-60
2020/12/15 03:43:09;;;;;;;58.78;34.70;;;;;;;1.92;90.44;99532.38;1766568;80;22289;-61
2020/12/15 03:45:36;;;;;;;60.10;37.08;;;;;;;1.90;90.34;99524.25;1765217;80;21017;-61
2020/12/15 03:48:03;;;;;;;58.08;35.70;;;;;;;1.86;90.28;99526.03;1761046;80;21688;-61
2020/12/15 03:50:30;;;;;;;66.20;37.63;;;;;;;1.81;90.24;99530.39;1768484;80;21032;-61
2020/12/15 03:52:57;;;;;;;59.63;35.48;;;;;;;1.76;90.19;99525.75;1765216;80;21006;-61
2020/12/15 03:55:24;;;;;;;63.68;38.08;;;;;;;1.67;90.16;99523.31;1763343;79;21176;-60
2020/12/15 03:57:51;;;;;;;59.38;36.90;;;;;;;1.61;90.18;99522.13;1760299;80;22358;-61
2020/12/15 04:00:20;;;;;;;56.37;33.20;;;;;;;1.54;90.27;99522.21;1758029;80;21562;-60
2020/12/15 04:02:49;;;;;;;66.37;37.63;;;;;;;1.51;90.29;99524.83;1768335;80;21222;-62
2020/12/15 04:05:16;;;;;;;64.80;39.00;;;;;;;1.48;90.33;99526.57;1761204;80;21006;-61
2020/12/15 04:07:44;;;;;;;64.00;38.70;;;;;;;1.45;90.47;99524.89;1764987;80;28319;-61
2020/12/15 04:10:12;;;;;;;;;;;;;;;1.44;90.48;99528.34;1768395;80;21149;-61
2020/12/15 04:12:39;;;;;;;64.03;36.90;;;;;;;1.45;90.52;99539.04;1770412;79;21713;-62
2020/12/15 04:15:06;;;;;;;68.22;39.78;;;;;;;1.45;90.57;99541.61;1772860;79;21096;-61
2020/12/15 04:20:11;;;;;;;60.63;38.20;;;;;;;1.54;90.58;99533.80;1882652;75;23309;-61
2020/12/15 04:22:38;;;;;;;65.30;37.60;;;;;;;1.54;90.58;99542.80;1839683;76;21608;-61
2020/12/15 04:25:06;;;;;;;68.67;40.17;;;;;;;1.57;90.49;99541.91;1808616;78;21135;-61
2020/12/15 04:27:35;;;;;;;67.50;40.08;;;;;;;1.60;90.47;99543.56;1778642;80;21582;-61
2020/12/15 04:30:05;;;;;;;65.25;40.78;;;;;;;1.60;90.41;99544.84;1794125;78;20965;-61
2020/12/15 04:32:32;;;;;;;58.95;39.05;;;;;;;1.60;90.31;99543.56;1790064;78;21633;-61
2020/12/15 04:34:59;;;;;;;74.58;42.50;;;;;;;1.58;90.28;99537.61;1811162;78;20944;-61
2020/12/15 04:37:26;;;;;;;67.58;39.83;;;;;;;1.54;90.12;99553.09;1780630;79;21211;-62
2020/12/15 04:39:53;;;;;;;66.45;38.35;;;;;;;1.50;90.03;99551.41;1779187;80;21028;-61
2020/12/15 04:42:20;;;;;;;69.70;42.03;;;;;;;1.44;89.99;99547.64;1783373;79;21017;-61
2020/12/15 04:44:48;;;;;;;72.45;41.60;;;;;;;1.37;90.03;99551.59;1746622;80;22586;-61
2020/12/15 04:47:36;;;;;;;74.90;41.75;;;;;;;1.31;90.13;99539.66;1783562;80;21580;-61
2020/12/15 04:50:14;;;;;;;70.03;42.33;;;;;;;1.26;90.07;99536.28;1789317;79;21607;-61
2020/12/15 04:52:57;;;;;;;70.45;41.95;;;;;;;1.20;90.08;99533.80;1785600;79;20997;-61
2020/12/15 04:55:25;;;;;;;75.28;44.35;;;;;;;1.15;90.18;99535.16;1785175;80;21207;-61
2020/12/15 04:57:57;;;;;;;70.75;40.20;;;;;;;1.13;90.17;99543.75;1781793;80;21665;-60
2020/12/15 05:00:24;;;;;;;70.57;42.67;;;;;;;1.07;90.16;99541.66;1784740;80;21217;-61
2020/12/15 05:02:55;;;;;;;74.27;42.78;;;;;;;1.04;90.17;99550.70;1779947;79;21600;-61
2020/12/15 05:05:24;;;;;;;76.72;44.83;;;;;;;1.02;90.20;99555.44;1786585;79;21024;-60
2020/12/15 05:07:54;;;;;;;70.80;43.38;;;;;;;1.01;90.29;99564.88;1777843;79;20997;-61
2020/12/15 05:10:21;;;;;;;73.47;43.05;;;;;;;1.05;90.42;99563.97;1786834;80;21017;-61
2020/12/15 05:12:49;;;;;;;74.07;43.70;;;;;;;1.10;90.41;99563.92;1785330;80;21112;-61
2020/12/15 05:15:19;;;;;;;80.67;47.15;;;;;;;1.14;90.41;99560.88;1779229;79;21651;-61
2020/12/15 05:17:47;;;;;;;75.57;45.08;;;;;;;1.15;90.37;99563.85;1781937;80;21088;-61
2020/12/15 05:20:31;;;;;;;72.42;43.52;;;;;;;1.17;90.35;99556.98;1767372;79;21100;-61
2020/12/15 05:22:59;;;;;;;74.15;44.00;;;;;;;1.20;90.34;99564.66;1779082;79;20998;-61
2020/12/15 05:25:34;;;;;;;68.35;41.95;;;;;;;1.23;90.35;99567.19;1786828;80;21040;-61
2020/12/15 05:28:11;;;;;;;71.70;44.58;;;;;;;1.26;90.40;99564.58;1786187;80;22186;-61
2020/12/15 05:30:38;;;;;;;69.85;43.17;;;;;;;1.29;90.36;99570.56;1814766;78;21064;-61
2020/12/15 05:33:15;;;;;;;68.52;40.88;;;;;;;1.30;90.25;99559.83;1820156;78;21024;-61
2020/12/15 05:35:44;;;;;;;70.78;43.40;;;;;;;1.29;90.20;99562.00;1818465;78;21063;-61
2020/12/15 05:38:11;;;;;;;74.80;44.80;;;;;;;1.28;90.14;99562.84;1785616;79;21012;-61
2020/12/15 05:40:43;;;;;;;69.12;41.80;;;;;;;1.27;90.16;99561.16;1775336;79;22832;-61
2020/12/15 05:43:12;;;;;;;67.75;43.48;;;;;;;1.27;90.15;99566.30;1782911;79;21560;-61
2020/12/15 05:45:41;;;;;;;77.78;44.77;;;;;;;1.25;90.12;99568.03;1778560;80;21060;-61
2020/12/15 05:48:10;;;;;;;75.90;45.03;;;;;;;1.24;90.18;99559.91;1780918;79;20950;-61
2020/12/15 05:50:39;;;;;;;76.53;44.55;;;;;;;1.25;90.20;99565.02;1791287;79;21129;-61
2020/12/15 05:53:11;;;;;;;74.97;44.30;;;;;;;1.26;90.16;99567.15;1781400;78;21574;-61
2020/12/15 05:55:40;;;;;;;69.53;43.55;;;;;;;1.27;90.23;99583.02;1787102;80;21581;-61
2020/12/15 05:58:07;;;;;;;72.55;43.55;;;;;;;1.26;90.17;99583.87;1781258;80;21017;-61
2020/12/15 06:00:34;;;;;;;73.37;43.10;;;;;;;1.28;90.23;99576.99;1777293;79;21124;-61
2020/12/15 06:03:05;;;;;;;77.35;44.77;;;;;;;1.28;90.21;99583.42;1772675;80;21204;-61
2020/12/15 06:05:37;;;;;;;77.17;43.73;;;;;;;1.29;90.22;99578.72;1787515;79;21224;-60
2020/12/15 06:08:06;;;;;;;80.42;46.25;;;;;;;1.31;90.27;99579.09;1784901;80;21209;-61
2020/12/15 06:10:34;;;;;;;74.80;44.67;;;;;;;1.32;90.21;99580.80;1770380;79;21160;-61
2020/12/15 06:13:04;;;;;;;72.82;44.45;;;;;;;1.32;90.15;99577.39;1784130;79;21195;-61
2020/12/15 06:15:31;;;;;;;68.72;42.27;;;;;;;1.33;90.15;99579.08;1785003;80;21112;-61
2020/12/15 06:18:00;;;;;;;;;;;;;;;1.34;90.13;99575.63;1787979;80;21313;-60
2020/12/15 06:20:36;;;;;;;70.57;42.10;;;;;;;1.34;90.07;99580.77;1752351;79;21164;-61
2020/12/15 06:26:20;;;;;;;78.37;44.88;;;;;;;1.40;90.20;99588.84;1866737;75;24519;-61
2020/12/15 06:29:06;;;;;;;70.32;42.13;;;;;;;1.37;90.27;99588.45;1814873;77;20993;-61
2020/12/15 06:31:35;;;;;;;72.35;44.27;;;;;;;1.41;90.20;99591.42;1824196;77;21190;-62
2020/12/15 06:34:03;;;;;;;76.40;42.83;;;;;;;1.41;90.10;99589.29;1817582;77;21024;-61
2020/12/15 06:36:33;;;;;;;64.75;41.50;;;;;;;1.40;90.16;99593.59;1824781;77;21598;-61
2020/12/15 06:39:28;;;;;;;73.25;43.25;;;;;;;1.43;90.14;99605.53;1817214;77;21068;-61
2020/12/15 06:42:02;;;;;;;73.65;42.50;;;;;;;1.42;90.10;99603.40;1817255;77;22132;-61
2020/12/15 06:44:37;;;;;;;75.25;45.25;;;;;;;1.42;90.08;99605.13;1801419;77;22153;-61
2020/12/15 06:47:05;;;;;;;75.22;42.80;;;;;;;1.41;90.08;99605.56;1815382;78;21036;-63
2020/12/15 06:49:36;;;;;;;64.30;40.92;;;;;;;1.43;90.16;99606.41;1826023;77;21124;-61
2020/12/15 06:52:07;;;;;;;69.97;41.33;;;;;;;1.45;90.16;99611.08;1814020;77;21133;-63
2020/12/15 06:54:38;;;;;;;72.65;41.58;;;;;;;1.47;90.16;99609.79;1823665;77;21190;-62
2020/12/15 06:57:12;;;;;;;82.25;50.60;;;;;;;1.49;90.14;99606.33;1829654;77;21639;-61
2020/12/15 06:59:42;;;;;;;71.05;44.23;;;;;;;1.52;90.14;99610.15;1824963;77;21142;-61
2020/12/15 07:02:16;;;;;;;72.92;43.02;;;;;;;1.55;90.16;99612.69;1825813;78;21017;-61
2020/12/15 07:04:48;;;;;;;97.57;57.75;;;;;;;1.59;90.17;99607.50;1820991;77;21091;-63
2020/12/15 07:07:18;;;;;;;89.37;51.75;;;;;;;1.63;90.13;99611.75;1814090;77;21624;-62
2020/12/15 07:09:46;;;;;;;77.30;47.38;;;;;;;1.67;90.14;99617.26;1827242;77;21660;-62
2020/12/15 07:12:16;;;;;;;;;;;;;;;1.68;90.11;99613.80;1820905;77;21059;-61
2020/12/15 07:14:50;;;;;;;94.97;58.42;;;;;;;1.70;90.04;99618.50;1817778;77;20263;-62
2020/12/15 07:17:18;;;;;;;92.57;60.88;;;;;;;1.71;90.04;99613.76;1816793;77;21452;-62
2020/12/15 07:19:47;;;;;;;78.07;49.67;;;;;;;1.68;89.96;99614.68;1819218;77;21108;-62
2020/12/15 07:22:14;;;;;;;80.97;52.50;;;;;;;1.71;89.99;99608.61;1822193;77;21195;-62
2020/12/15 07:24:41;;;;;;;80.28;55.63;;;;;;;1.71;89.93;99603.47;1817224;77;26261;-61
2020/12/15 07:27:09;;;;;;;77.55;48.85;;;;;;;1.71;89.96;99604.75;1817162;77;21170;-62
2020/12/15 07:29:38;;;;;;;;;;;;;;;1.74;90.03;99602.16;1823298;77;21545;-61
2020/12/15 07:32:11;;;;;;;74.65;50.67;;;;;;;1.77;90.02;99603.41;1822629;77;20299;-61
2020/12/15 07:34:38;;;;;;;76.07;51.55;;;;;;;1.78;90.03;99605.94;1817647;77;21209;-62
2020/12/15 07:37:08;;;;;;;88.25;55.85;;;;;;;1.81;89.96;99605.05;1810876;77;21202;-62
2020/12/15 07:39:35;;;;;;;74.22;45.40;;;;;;;1.81;89.82;99602.48;1823605;77;20958;-61
2020/12/15 07:42:04;;;;;;;148.50;116.17;;;;;;;1.80;89.88;99604.66;1821019;77;21550;-61
2020/12/15 07:44:31;;;;;;;97.90;71.80;;;;;;;1.83;89.94;99617.48;1819968;77;21616;-62
2020/12/15 07:47:00;;;;;;;117.30;91.30;;;;;;;1.85;89.91;99615.74;1818127;76;22553;-61
2020/12/15 07:49:28;;;;;;;75.78;52.98;;;;;;;1.89;89.93;99623.83;1829109;77;21182;-62
2020/12/15 07:51:59;;;;;;;76.20;47.88;;;;;;;1.92;89.83;99619.92;1817569;77;21553;-64
2020/12/15 07:54:26;;;;;;;68.22;45.30;;;;;;;1.94;89.77;99622.05;1809089;77;21071;-63
2020/12/15 07:56:54;;;;;;;63.87;41.60;;;;;;;1.92;89.67;99619.92;1814496;77;21032;-61
2020/12/15 07:59:22;;;;;;;73.37;42.58;;;;;;;1.91;89.70;99618.23;1797015;77;21179;-62
2020/12/15 08:01:50;;;;;;;66.92;41.80;;;;;;;1.90;89.75;99624.67;1822526;77;20996;-61
2020/12/15 08:04:18;;;;;;;229.63;111.25;;;;;;;1.93;89.79;99624.22;1816593;77;21197;-62
2020/12/15 08:06:47;;;;;;;447.40;230.70;;;;;;;1.94;89.68;99622.05;1826002;77;21140;-62
2020/12/15 08:09:17;;;;;;;306.02;140.80;;;;;;;1.95;89.61;99622.89;1816276;77;21104;-62
2020/12/15 08:11:46;;;;;;;410.97;187.77;;;;;;;1.95;89.66;99621.16;1808008;77;21238;-62
2020/12/15 08:14:16;;;;;;;263.82;115.52;;;;;;;1.96;89.62;99631.90;1819953;77;21617;-61
2020/12/15 08:16:47;;;;;;;205.50;96.95;;;;;;;1.96;89.51;99633.19;1817570;77;21106;-61
2020/12/15 08:19:17;;;;;;;398.25;184.35;;;;;;;1.95;89.52;99635.33;1819542;77;21266;-62
2020/12/15 08:21:50;;;;;;;393.25;180.27;;;;;;;1.93;89.44;99625.50;1819870;77;21206;-62
2020/12/15 08:24:27;;;;;;;331.23;149.97;;;;;;;1.93;89.49;99625.91;1822376;77;21754;-64
2020/12/15 08:26:56;;;;;;;394.50;190.95;;;;;;;1.93;89.59;99628.08;1812084;77;21036;-62
2020/12/15 08:29:30;;;;;;;216.48;108.37;;;;;;;1.94;89.52;99622.05;1812501;77;21174;-62
2020/12/15 08:31:57;;;;;;;226.67;115.72;;;;;;;1.96;89.59;99621.59;1820121;77;21220;-62
2020/12/15 08:34:24;;;;;;;108.92;62.27;;;;;;;1.95;89.40;99616.02;1814451;77;21159;-62
2020/12/15 08:36:54;;;;;;;141.82;83.00;;;;;;;1.96;89.48;99625.46;1819422;76;21205;-64
2020/12/15 08:39:24;;;;;;;136.07;81.10;;;;;;;1.99;89.59;99633.14;1815398;77;21040;-62
2020/12/15 08:41:55;;;;;;;105.43;67.05;;;;;;;2.04;89.46;99615.47;1813374;77;21068;-62
2020/12/15 08:44:24;;;;;;;72.00;45.00;;;;;;;2.07;89.49;99619.28;1812844;77;21624;-62
2020/12/15 08:46:56;;;;;;;65.85;38.25;;;;;;;2.07;89.31;99622.70;1810932;77;21147;-63
2020/12/15 08:49:27;;;;;;;65.57;39.38;;;;;;;2.05;89.21;99623.63;1816343;78;21581;-61
2020/12/15 08:51:55;;;;;;;67.15;38.23;;;;;;;2.03;89.23;99628.79;1823904;77;21013;-62
2020/12/15 08:54:22;;;;;;;56.65;34.38;;;;;;;2.01;89.15;99631.38;1816127;77;21124;-62
2020/12/15 08:56:50;;;;;;;59.05;34.43;;;;;;;2.03;89.26;99623.64;1819292;77;21210;-61
2020/12/15 09:02:01;;;;;;;58.87;34.08;;;;;;;2.10;89.21;99626.97;1838535;76;23114;-61
2020/12/15 09:04:28;;;;;;;55.08;32.90;;;;;;;2.09;89.25;99631.71;1803287;77;21012;-61
2020/12/15 09:06:58;;;;;;;60.73;35.73;;;;;;;2.11;89.25;99626.11;1798273;77;21632;-61
2020/12/15 09:09:30;;;;;;;67.27;38.00;;;;;;;2.14;89.21;99624.78;1806553;77;20968;-61
2020/12/15 09:11:59;;;;;;;63.23;34.43;;;;;;;2.15;89.20;99622.61;1809621;77;21055;-62
2020/12/15 09:14:26;;;;;;;56.55;34.18;;;;;;;2.18;89.16;99627.70;1802816;77;21990;-63
2020/12/15 09:17:01;;;;;;;60.95;35.58;;;;;;;2.20;89.19;99623.39;1804003;77;21154;-62
2020/12/15 09:19:29;;;;;;;54.10;33.35;;;;;;;2.24;89.14;99619.88;1803695;77;21198;-62
2020/12/15 09:22:06;;;;;;;50.83;32.40;;;;;;;2.31;89.19;99628.39;1798361;77;21103;-62
2020/12/15 09:24:48;;;;;;;54.45;33.50;;;;;;;2.36;89.07;99624.88;1807380;77;21028;-61
2020/12/15 09:27:26;;;;;;;58.00;34.58;;;;;;;2.32;88.71;99623.20;1796900;77;21249;-61
2020/12/15 09:29:57;;;;;;;56.77;30.92;;;;;;;2.31;88.68;99618.93;1793676;76;21071;-62
2020/12/15 09:32:36;;;;;;;50.70;30.82;;;;;;;2.28;88.72;99620.71;1800643;77;21566;-62
2020/12/15 09:35:10;;;;;;;44.20;27.52;;;;;;;2.28;88.77;99618.98;1801585;77;21155;-62
2020/12/15 09:37:43;;;;;;;48.25;30.20;;;;;;;2.25;88.64;99613.88;1799378;77;21166;-61
2020/12/15 09:40:17;;;;;;;43.75;27.27;;;;;;;2.19;88.61;99619.13;1797729;77;21138;-61
2020/12/15 09:42:48;;;;;;;46.92;29.52;;;;;;;2.16;88.67;99619.17;1800216;77;21225;-62
2020/12/15 09:45:16;;;;;;;45.30;28.67;;;;;;;2.14;88.58;99627.36;1803380;77;22248;-64
2020/12/15 09:47:47;;;;;;;41.37;27.13;;;;;;;2.07;88.42;99619.28;1718444;81;21218;-62
2020/12/15 09:50:17;;;;;;;53.78;29.42;;;;;;;1.98;88.37;99614.68;1765653;78;21129;-62
2020/12/15 09:52:46;;;;;;;41.95;28.50;;;;;;;1.90;88.26;99616.50;1731680;80;21209;-62
2020/12/15 09:55:17;;;;;;;49.05;28.55;;;;;;;1.83;88.35;99626.48;1743440;80;21041;-61
2020/12/15 09:57:46;;;;;;;48.17;28.87;;;;;;;1.76;88.39;99622.28;1741146;80;21273;-61
2020/12/15 10:00:17;;;;;;;43.55;27.77;;;;;;;1.70;88.42;99615.48;1730217;80;22662;-62
2020/12/15 10:02:49;;;;;;;48.87;28.23;;;;;;;1.67;88.45;99624.98;1771768;79;22373;-61
2020/12/15 10:05:21;;;;;;;45.20;27.73;;;;;;;1.61;88.43;99614.77;1722841;80;21225;-61
2020/12/15 10:07:51;;;;;;;49.08;28.17;;;;;;;1.60;88.51;99618.19;1769757;80;21242;-63
2020/12/15 10:10:24;;;;;;;42.10;25.25;;;;;;;1.62;88.66;99621.61;1727251;81;21227;-62
2020/12/15 10:12:52;;;;;;;41.42;24.43;;;;;;;1.66;88.43;99614.28;1731611;81;21184;-62
2020/12/15 10:15:24;;;;;;;38.35;22.98;;;;;;;1.61;88.30;99618.63;1730918;81;21235;-64
2020/12/15 10:17:55;;;;;;;38.05;24.23;;;;;;;1.59;88.32;99613.93;1729753;81;21693;-62
2020/12/15 10:20:24;;;;;;;39.23;24.45;;;;;;;1.53;88.31;99617.43;1738203;81;21133;-62
2020/12/15 10:22:54;;;;;;;41.25;25.12;;;;;;;1.52;88.33;99623.02;1732552;81;22130;-62
2020/12/15 10:25:26;;;;;;;39.70;24.80;;;;;;;1.53;88.43;99618.27;1730540;81;21838;-63
2020/12/15 10:27:57;;;;;;;42.78;26.05;;;;;;;1.54;88.24;99617.42;1730945;81;21199;-63
2020/12/15 10:30:35;;;;;;;45.25;26.07;;;;;;;1.51;87.99;99614.02;1867138;75;22696;-62
2020/12/15 10:33:11;;;;;;;39.42;26.05;;;;;;;1.37;88.08;99614.17;1783971;76;21149;-63
2020/12/15 10:35:43;;;;;;;41.23;26.45;;;;;;;1.32;88.10;99615.98;1813974;77;21195;-62
2020/12/15 10:38:12;;;;;;;42.55;25.15;;;;;;;1.26;88.16;99610.88;1844233;77;21028;-62
2020/12/15 10:40:41;;;;;;;42.33;23.65;;;;;;;1.20;88.12;99614.36;1843654;76;21025;-62
2020/12/15 10:43:09;;;;;;;33.02;20.97;;;;;;;1.10;88.15;99608.48;1840813;77;21050;-62
2020/12/15 10:45:38;;;;;;;39.20;22.15;;;;;;;1.07;88.17;99608.52;1840422;77;26753;-61
2020/12/15 10:48:05;;;;;;;35.52;21.40;;;;;;;1.02;88.14;99602.56;1841050;76;21481;-62
2020/12/15 10:50:33;;;;;;;38.78;22.87;;;;;;;0.98;88.33;99616.34;1840832;76;21038;-61
2020/12/15 10:53:08;;;;;;;36.03;21.93;;;;;;;0.96;88.35;99614.65;1844598;77;21108;-61
2020/12/15 10:55:34;;;;;;;40.60;22.60;;;;;;;0.97;88.50;99606.91;1842577;76;21182;-61
2020/12/15 10:58:01;;;;;;;39.03;23.35;;;;;;;0.99;88.51;99603.89;1838165;77;21027;-61
2020/12/15 11:00:28;;;;;;;34.40;22.98;;;;;;;1.04;88.56;99603.41;1838437;76;21176;-63
2020/12/15 11:02:56;;;;;;;39.03;24.18;;;;;;;1.09;88.57;99601.65;1849227;77;21087;-62
2020/12/15 11:05:24;;;;;;;43.08;25.77;;;;;;;1.14;88.50;99600.73;1851042;77;21557;-61
2020/12/15 11:07:52;;;;;;;36.98;25.02;;;;;;;1.17;88.49;99598.13;1839775;77;21083;-61
2020/12/15 11:10:19;;;;;;;42.85;26.27;;;;;;;1.19;88.49;99598.97;1841517;75;21150;-61
2020/12/15 11:12:47;;;;;;;39.08;25.60;;;;;;;1.22;88.50;99596.36;1837474;76;22155;-61
2020/12/15 11:15:13;;;;;;;;;;;;;;;1.23;88.41;99586.07;1847769;76;21114;-62
2020/12/15 11:17:43;;;;;;;45.73;26.15;;;;;;;1.26;88.36;99577.03;1839182;76;20541;-62
2020/12/15 11:20:11;;;;;;;42.43;27.67;;;;;;;1.27;88.47;99583.02;1843581;77;21044;-61
2020/12/15 11:22:40;;;;;;;41.13;26.97;;;;;;;1.32;88.40;99574.82;1839156;76;21171;-63
2020/12/15 11:25:07;;;;;;;44.58;27.98;;;;;;;1.23;88.14;99564.61;1838221;76;21283;-61
2020/12/15 11:27:34;;;;;;;48.60;29.55;;;;;;;1.17;88.22;99564.69;1845898;76;21185;-62
2020/12/15 11:30:03;;;;;;;59.93;36.70;;;;;;;1.14;88.27;99556.58;1844527;76;21262;-61
2020/12/15 11:32:32;;;;;;;46.23;30.15;;;;;;;1.10;88.36;99556.21;1844891;76;21064;-63
2020/12/15 11:34:59;;;;;;;47.83;32.28;;;;;;;1.08;88.30;99563.08;1847290;76;21186;-61
2020/12/15 11:37:26;;;;;;;45.52;28.50;;;;;;;1.07;88.46;99571.23;1816972;76;22082;-62
2020/12/15 11:39:55;;;;;;;47.27;28.23;;;;;;;1.09;88.45;99560.51;1833148;76;21196;-61
2020/12/15 11:42:22;;;;;;;46.25;30.62;;;;;;;1.06;88.28;99556.66;1828956;76;21163;-63
2020/12/15 11:44:50;;;;;;;;;;;;;;;1.04;88.49;99566.13;1831689;76;21148;-64